AirNav   Everest Fuels
 
 1425 users online  

44FD Hard Rock Heliport
Hollywood, Florida, USA

GOING TO HOLLYWOOD?


FAA INFORMATION EFFECTIVE 28 FEBRUARY 2019

Location

FAA Identifier: 44FD
Lat/Long: 26-03-02.6900N / 080-12-39.2000W
26-03.044833N / 080-12.653333W
26.0507472 / -80.2108889
(estimated)
Elevation: 125 ft. / 38 m (estimated)
From city: 5 miles NW of HOLLYWOOD, FL
Time zone: UTC -5 (UTC -4 during Daylight Saving Time)
Zip code: 33314

Heliport Operations

Heliport use: Private use. Permission required prior to landing
Activation date: 12/2015
Control tower: no
ARTCC: MIAMI CENTER
FSS: MIAMI FLIGHT SERVICE STATION
Attendance: IREG
Wind indicator: yes
Segmented circle: yes

Heliport Communications

WX ASOS at HWO (3 nm SW): PHONE 954-983-5904
WX ASOS at FLL (4 nm E): PHONE 954-359-7857
WX ASOS at FXE (9 nm N): PHONE 954-772-2537
WX ASOS at OPF (9 nm SW): 125.9 (305-681-4063)
WX ASOS at PMP (13 nm NE): PHONE 954-783-3720
WX ASOS at MIA (16 nm S): PHONE 305-870-0235

Nearby radio navigation aids

VOR radial/distance  VOR name  Freq  Var
FLLr246/2.8FORT LAUDERDALE VOR/DME114.4006W
DHPr030/16.8DOLPHIN VORTAC113.9004W
VKZr354/18.2VIRGINIA KEY VOR/DME117.1004W
PBIr193/38.3PALM BEACH VORTAC115.7003W

 
NDB name  Hdg/Dist  Freq  Var  ID
PRAIZ157/9.322107WFX ..-. -..-

Heliport Services

Runway Information

Helipad H1

Dimensions: 50 x 50 ft. / 15 x 15 m
Surface: ROOF/TOP
Weight bearing capacity: 
Single wheel: 12.5
Traffic pattern: leftleft

Heliport Ownership and Management from official FAA records

Ownership: Privately-owned
Owner: SEMINOLE TRIBE OF FLORIDA
1 SEMINOLE WAY
HOLLYWOOD, FL 33024
Phone 863-983-7677
Manager: PEDRO RODRIQUEZ
35201 EAGLES LANDING
CLEWISTON, FL 33440
Phone 863-983-7677

Additional Remarks

HELI IS LCTD ON THE TOP FLOOR OF A PARKING GARAGE.
FOR CD CTC MIAMI APCH AT 305-869-5432.

Instrument Procedures

There are no published instrument procedures at 44FD.

Some nearby airports with instrument procedures:

KHWO - North Perry Airport (3 nm SW)
KFLL - Fort Lauderdale/Hollywood International Airport (4 nm E)
KFXE - Fort Lauderdale Executive Airport (9 nm N)
KOPF - Miami-Opa Locka Executive Airport (9 nm SW)
KPMP - Pompano Beach Airpark (13 nm NE)
KMIA - Miami International Airport (16 nm S)
 
Loc | Ops | Rwys | IFR | FBO | Links
Com | Nav | Svcs | Stats | Notes
Aerial photo
No photo
 
Airport distance calculator
Flying to Hard Rock Heliport? Find the distance to fly.

From to 44FD

Sunrise and sunset
Times for 19-Mar-2019
 Local
(UTC-4)
 Zulu
(UTC)
Morning civil twilight07:0411:04
Sunrise07:2711:27
Sunset19:3023:30
Evening civil twilight19:5323:53

Current date and time
Zulu (UTC)  19-Mar-2019 20:17:13
Local (UTC-4)  19-Mar-2019 16:17:13
 
METAR
KHWO 
3nm S 
191953Z 03008KT 10SM SCT017 OVC029 20/18 A3001 RMK AO2 RAE38 SLP162 P0000 T02000178
KFLL 
3nm E 
191953Z 05007KT 10SM SCT017 BKN027 OVC033 21/18 A2998 RMK AO2 RAE36 SLP152 P0001 T02110183
KOPF 
9nm SW 
192000Z 03011KT 10SM SCT016 OVC022 21/18 A3000 RMK AO2 T02110183
KFXE 
9nm N 
191953Z 03007KT 10SM -RA SCT022 BKN030 21/20 A3000 RMK AO2 SLP159 P0001 T02060200
KPMP 
13nm NE 
191953Z AUTO 05017G25KT 5SM -RA BKN015 OVC025 21/18 A3000 RMK AO2 SLP159 P0001 T02060178
KMIA 
17nm S 
191953Z 04006KT 10SM BKN013 OVC021 21/20 A2999 RMK AO2 RAE32 SLP156 P0000 T02060200
TAF
KFLL 
3nm E 
191737Z 1918/2024 02007KT 5SM -SHRA BKN010 BKN040 OVC070 FM192100 03010KT P6SM VCSH SCT010 BKN030 OVC070 FM200200 03006KT 4SM -SHRA SCT009 BKN020 OVC060 FM200800 35006KT P6SM VCSH SCT015 BKN030 OVC060 FM201500 03008KT P6SM SCT020 BKN050 BKN080
KOPF 
9nm SW 
191737Z 1918/2018 04006KT 6SM -SHRA SCT007 BKN010 OVC090 FM192100 04010KT P6SM VCSH SCT009 BKN030 OVC070 FM200200 03007KT 6SM -SHRA SCT009 BKN020 OVC060 FM200900 35005KT P6SM VCSH SCT015 BKN030 OVC060 FM201600 01007KT P6SM SCT020 BKN050 BKN080
KFXE 
9nm N 
191737Z 1918/2018 02010KT 6SM -SHRA SCT008 BKN030 OVC090 FM192000 03010KT P6SM VCSH SCT009 BKN030 OVC070 FM200200 03006KT 6SM -SHRA SCT009 BKN020 OVC060 FM200800 35003KT P6SM VCSH SCT015 BKN030 OVC060 FM201600 02008KT P6SM SCT020 BKN050 BKN080
KMIA 
17nm S 
191737Z 1918/2024 04006KT 6SM -SHRA SCT007 BKN070 OVC090 FM192100 04010KT P6SM VCSH SCT009 BKN030 OVC070 FM200200 03005KT 6SM -SHRA SCT009 BKN020 OVC060 FM200900 VRB03KT P6SM VCSH SCT015 BKN030 OVC060 FM201600 01007KT P6SM SCT020 BKN050 BKN080
NOTAMs
Click for the latest NOTAMs
NOTAMs are issued by the DoD/FAA and will open in a separate window not controlled by AirNav.

 

 
 

Would you like to see your business listed on this page?

 If your business provides an interesting product or service to pilots, flight crews, aircraft, or users of the Hard Rock Heliport, you should consider listing it here.  To start the listing process, click on the button below
 
Add a business
 

Other Pages about Hard Rock Heliport

Update a link
 
Copyright © AirNav, LLC. All rights reserved. Privacy Policy  Contact